Terminal Aerodrome Forecast
Issued by NWS Sioux Falls, SD

Home | Current Version | Previous Version | Text Only | Print | Product List | Glossary On
Versions: 1 2 3 4 5 6 7 8 9 10 11 12 13
971
FTUS43 KFSD 191507 AAA
TAFHON
TAF AMD
KHON 191507Z 1915/2012 16012KT P6SM FEW006
     FM191600 16010KT 1SM BR OVC003
     FM192300 15009KT P6SM OVC020
     FM200300 15009KT 4SM -DZ BR OVC008
     FM200700 15009KT 3SM -DZ BR OVC003=

USA.gov is the U.S. government's official web portal to all federal, state and local government web resources and services.